Time;durP1;ratioP1;P1;durP2;ratioP2;P2;SDS_P1;SDS_P2;PMS_P1;PMS_P2;Temp;Humidity;BMP_temperature;BMP_pressure;BME280_temperature;BME280_humidity;BME280_pressure;Samples;Min_cycle;Max_cycle;Signal;HPM_P1;HPM_P2
2022/07/27 00:02:19;;;;;;;6.70;3.27;;;;;;;17.04;94.33;93945.00;5050478;28;20202;-66
2022/07/27 00:05:03;;;;;;;6.53;3.30;;;;;;;17.04;92.76;93951.41;5053844;28;20240;-66
2022/07/27 00:07:47;;;;;;;6.30;3.40;;;;;;;16.92;93.96;93954.38;5053787;28;20715;-67
2022/07/27 00:10:32;;;;;;;3.93;3.47;;;;;;;16.83;94.28;93948.97;5051592;28;20256;-67
2022/07/27 00:13:17;;;;;;;9.23;3.30;;;;;;;16.67;94.86;93942.53;5044999;28;20717;-67
2022/07/27 00:16:01;;;;;;;11.93;3.00;;;;;;;16.45;95.81;93934.38;5051731;28;20620;-67
2022/07/27 00:18:45;;;;;;;9.50;3.60;;;;;;;16.53;94.85;93923.47;5051464;28;20268;-67
2022/07/27 00:21:28;;;;;;;11.17;3.10;;;;;;;16.40;95.89;93927.06;5051930;28;20271;-66
2022/07/27 00:24:12;;;;;;;9.77;3.13;;;;;;;16.28;97.67;93923.63;5047303;28;20205;-67
2022/07/27 00:26:56;;;;;;;6.73;3.27;;;;;;;16.31;96.66;93922.38;5053191;28;20213;-67
2022/07/27 00:29:40;;;;;;;7.70;3.50;;;;;;;16.13;97.15;93932.75;5051485;28;20251;-67
2022/07/27 00:32:25;;;;;;;5.63;3.27;;;;;;;16.28;97.36;93937.78;5047836;28;20196;-67
2022/07/27 00:35:10;;;;;;;9.07;3.67;;;;;;;16.10;97.92;93934.75;5052676;28;20256;-67
2022/07/27 00:37:54;;;;;;;15.13;3.90;;;;;;;16.21;98.42;93933.19;5058857;28;21038;-67
2022/07/27 00:40:38;;;;;;;6.67;3.40;;;;;;;16.50;97.74;93926.81;5045992;28;20266;-67
2022/07/27 00:43:22;;;;;;;8.17;3.20;;;;;;;16.53;96.32;93929.13;5051587;28;20205;-67
2022/07/27 00:46:06;;;;;;;7.90;3.17;;;;;;;16.65;95.17;93922.63;5049855;28;20312;-66
2022/07/27 00:48:50;;;;;;;11.30;3.27;;;;;;;16.64;94.29;93915.50;5052903;28;20230;-67
2022/07/27 00:51:34;;;;;;;7.10;3.10;;;;;;;16.61;94.83;93917.50;5042260;28;20292;-67
2022/07/27 00:54:20;;;;;;;11.87;3.20;;;;;;;16.58;95.19;93913.81;5047092;28;20233;-67
2022/07/27 00:57:05;;;;;;;6.63;2.80;;;;;;;16.43;95.55;93920.13;5051299;28;20617;-67
2022/07/27 00:59:49;;;;;;;4.10;2.93;;;;;;;16.37;95.98;93911.34;5037717;28;20221;-67
2022/07/27 01:02:33;;;;;;;5.07;2.70;;;;;;;16.46;95.36;93899.09;5050838;28;20603;-67
2022/07/27 01:05:17;;;;;;;9.20;2.97;;;;;;;16.45;96.06;93905.38;5051703;28;20450;-67
2022/07/27 01:08:01;;;;;;;4.90;2.83;;;;;;;16.74;93.58;93908.22;5048221;28;20237;-67
2022/07/27 01:10:46;;;;;;;6.23;2.77;;;;;;;16.60;92.64;93904.00;5048364;28;20631;-67
2022/07/27 01:13:30;;;;;;;5.50;2.57;;;;;;;16.57;94.13;93891.81;5050211;28;20201;-67
2022/07/27 01:16:15;;;;;;;3.30;2.97;;;;;;;16.68;93.64;93887.41;5050325;28;20206;-66
2022/07/27 01:18:59;;;;;;;6.80;3.03;;;;;;;16.66;93.38;93890.16;5051623;28;20358;-67
2022/07/27 01:21:43;;;;;;;6.90;2.70;;;;;;;16.50;93.11;93885.13;5051251;28;20210;-66
2022/07/27 01:24:27;;;;;;;5.90;2.70;;;;;;;16.55;91.96;93877.56;5057586;28;20225;-67
2022/07/27 01:27:11;;;;;;;5.63;2.60;;;;;;;16.09;92.82;93873.19;5054181;28;20252;-67
2022/07/27 01:29:55;;;;;;;6.03;3.13;;;;;;;16.05;94.28;93870.16;5054247;28;20216;-66
2022/07/27 01:32:39;;;;;;;9.83;3.30;;;;;;;15.81;96.26;93868.94;5044268;28;20193;-67
2022/07/27 01:35:22;;;;;;;9.27;3.47;;;;;;;15.72;98.25;93871.38;5050637;28;20194;-67
2022/07/27 01:38:08;;;;;;;9.00;3.37;;;;;;;15.60;98.33;93865.09;5049517;28;20263;-67
2022/07/27 01:40:53;;;;;;;14.70;3.50;;;;;;;15.37;100.00;93865.97;5048441;28;20249;-66
2022/07/27 01:43:38;;;;;;;16.33;3.50;;;;;;;15.45;100.00;93862.84;5048224;28;20244;-66
2022/07/27 01:46:23;;;;;;;12.90;4.30;;;;;;;15.60;99.89;93859.44;5048501;28;20225;-67
2022/07/27 01:49:07;;;;;;;9.73;3.97;;;;;;;15.69;99.12;93855.66;5052730;28;20275;-67
2022/07/27 01:51:52;;;;;;;12.63;3.87;;;;;;;15.68;98.52;93854.19;5044541;28;20610;-67
2022/07/27 01:54:36;;;;;;;18.77;3.80;;;;;;;15.66;97.60;93848.44;5047488;28;20268;-67
2022/07/27 01:57:20;;;;;;;7.90;3.00;;;;;;;15.61;96.13;93855.25;5047916;28;20197;-67
2022/07/27 02:00:08;;;;;;;11.97;3.30;;;;;;;15.49;97.09;93856.69;5047514;28;20569;-67
2022/07/27 02:02:57;;;;;;;6.27;3.33;;;;;;;15.45;97.29;93850.81;5047890;28;20287;-67
2022/07/27 02:05:41;;;;;;;3.33;3.03;;;;;;;15.40;97.05;93861.19;5050636;28;20240;-67
2022/07/27 02:08:26;;;;;;;13.70;3.60;;;;;;;15.30;99.02;93857.84;5044165;28;20193;-67
2022/07/27 02:14:12;;;;;;;9.17;3.47;;;;;;;15.18;98.80;93863.53;5048497;28;20207;-67
2022/07/27 02:16:56;;;;;;;9.23;3.73;;;;;;;15.15;99.58;93875.38;5045529;28;20246;-66
2022/07/27 02:19:41;;;;;;;9.07;3.53;;;;;;;15.16;100.00;93876.84;5051026;28;20209;-67
2022/07/27 02:22:26;;;;;;;8.27;3.70;;;;;;;15.10;100.00;93884.97;5048286;28;20248;-67
2022/07/27 02:25:11;;;;;;;8.47;4.20;;;;;;;15.23;100.00;93881.44;5050248;28;20225;-67
2022/07/27 02:27:56;;;;;;;6.20;4.33;;;;;;;15.58;100.00;93886.84;5050837;28;20209;-67
2022/07/27 02:30:40;;;;;;;10.27;4.93;;;;;;;15.77;100.00;93887.16;5042450;28;20229;-67
2022/07/27 02:33:24;;;;;;;7.40;4.20;;;;;;;15.90;99.67;93880.03;5049617;28;20248;-67
2022/07/27 02:36:08;;;;;;;7.63;4.07;;;;;;;16.00;98.37;93883.34;5050324;28;20706;-67
2022/07/27 02:38:52;;;;;;;7.60;5.03;;;;;;;16.10;98.84;93888.81;5052037;28;20718;-67
2022/07/27 02:41:36;;;;;;;7.27;5.63;;;;;;;16.25;99.27;93890.97;5048138;28;20690;-67
2022/07/27 02:44:20;;;;;;;12.23;5.33;;;;;;;15.99;100.00;93890.38;5041060;28;20200;-67
2022/07/27 02:47:04;;;;;;;15.27;6.83;;;;;;;16.11;100.00;93878.94;5050736;28;20256;-67
2022/07/27 02:49:48;;;;;;;16.40;8.77;;;;;;;16.28;100.00;93891.81;5058715;28;20339;-67
2022/07/27 02:52:32;;;;;;;15.73;9.70;;;;;;;16.33;100.00;93882.88;5039501;28;20627;-67
2022/07/27 02:55:16;;;;;;;22.40;9.93;;;;;;;16.42;100.00;93884.72;5051707;28;20227;-67
2022/07/27 02:58:00;;;;;;;38.73;10.63;;;;;;;16.47;100.00;93892.06;5050597;28;20726;-67
2022/07/27 03:00:44;;;;;;;23.40;9.87;;;;;;;16.36;100.00;93898.56;5043108;28;20201;-67
2022/07/27 03:03:28;;;;;;;41.23;11.23;;;;;;;16.30;100.00;93895.44;5052691;28;20225;-67
2022/07/27 03:06:12;;;;;;;43.63;11.33;;;;;;;16.17;100.00;93887.72;5064952;28;20359;-67
2022/07/27 03:08:57;;;;;;;28.97;10.00;;;;;;;16.07;100.00;93884.41;5056253;28;20252;-67
2022/07/27 03:11:40;;;;;;;26.20;10.70;;;;;;;16.37;100.00;93900.03;5054763;28;20205;-66
2022/07/27 03:14:24;;;;;;;18.43;11.00;;;;;;;16.66;100.00;93890.88;5055417;28;20273;-67
2022/07/27 03:17:08;;;;;;;24.53;10.97;;;;;;;16.95;100.00;93890.13;5054297;28;20252;-67
2022/07/27 03:19:52;;;;;;;18.23;11.43;;;;;;;16.96;100.00;93888.75;5054509;28;20663;-66
2022/07/27 03:22:36;;;;;;;15.00;10.57;;;;;;;16.89;100.00;93884.91;5050012;28;20197;-66
2022/07/27 03:25:20;;;;;;;11.07;9.50;;;;;;;16.95;100.00;93884.47;5054121;28;20194;-66
2022/07/27 03:28:04;;;;;;;12.00;10.20;;;;;;;17.25;100.00;93883.03;5053967;28;20209;-66
2022/07/27 03:30:49;;;;;;;17.37;10.87;;;;;;;16.80;100.00;93885.88;5060354;28;20196;-67
2022/07/27 03:33:33;;;;;;;16.67;9.40;;;;;;;17.23;100.00;93877.28;5056250;28;20280;-67
2022/07/27 03:36:17;;;;;;;23.57;9.17;;;;;;;16.81;100.00;93883.78;5048614;28;20641;-67
2022/07/27 03:39:01;;;;;;;19.20;8.87;;;;;;;16.70;100.00;93884.69;5059987;28;20260;-66
2022/07/27 03:41:46;;;;;;;17.37;8.33;;;;;;;17.07;100.00;93875.81;5064226;28;20211;-66
2022/07/27 03:44:30;;;;;;;16.67;9.00;;;;;;;17.24;99.09;93875.91;5060120;28;20248;-66
2022/07/27 03:47:14;;;;;;;12.60;9.17;;;;;;;17.26;97.78;93870.34;5053934;28;20233;-66
2022/07/27 03:49:58;;;;;;;17.00;8.90;;;;;;;17.15;96.83;93876.91;5056110;28;20279;-67
2022/07/27 03:52:42;;;;;;;11.90;8.87;;;;;;;17.08;97.93;93866.69;5043546;28;20255;-66
2022/07/27 03:55:26;;;;;;;13.30;9.27;;;;;;;17.02;100.00;93869.22;5053580;28;20322;-66
2022/07/27 03:58:11;;;;;;;21.00;9.87;;;;;;;17.11;100.00;93862.56;5051858;28;20702;-67
2022/07/27 04:00:55;;;;;;;16.70;10.07;;;;;;;17.26;100.00;93864.69;5057125;28;20736;-66
2022/07/27 04:03:39;;;;;;;16.13;9.93;;;;;;;17.46;100.00;93862.03;5047673;28;20299;-66
2022/07/27 04:06:24;;;;;;;14.33;7.40;;;;;;;17.13;96.34;93857.00;5053198;28;20755;-66
2022/07/27 04:09:08;;;;;;;8.87;6.47;;;;;;;16.54;100.00;93864.81;5054699;28;20327;-66
2022/07/27 04:11:52;;;;;;;7.83;6.33;;;;;;;16.64;99.82;93864.59;5050400;28;20240;-66
2022/07/27 04:14:36;;;;;;;17.37;7.17;;;;;;;16.81;98.16;93855.50;5045104;28;20205;-66
2022/07/27 04:17:20;;;;;;;6.40;5.77;;;;;;;16.71;97.69;93864.25;5053261;28;20619;-66
2022/07/27 04:20:04;;;;;;;11.47;6.00;;;;;;;16.69;97.81;93866.22;5050747;28;20564;-66
2022/07/27 04:22:49;;;;;;;7.77;5.40;;;;;;;16.81;97.77;93855.50;5052418;28;20209;-67
2022/07/27 04:25:33;;;;;;;8.17;5.83;;;;;;;16.76;98.01;93863.06;5053671;28;20588;-67
2022/07/27 04:28:17;;;;;;;14.70;6.60;;;;;;;16.97;97.64;93867.59;5050787;28;20200;-67
2022/07/27 04:31:01;;;;;;;11.87;5.90;;;;;;;16.89;97.04;93864.38;5051152;28;20277;-67
2022/07/27 04:33:45;;;;;;;16.30;7.73;;;;;;;16.73;100.00;93855.84;5050900;28;20220;-67
2022/07/27 04:36:29;;;;;;;24.07;9.03;;;;;;;16.95;100.00;93859.00;5041097;28;20201;-67
2022/07/27 04:39:13;;;;;;;13.73;8.10;;;;;;;17.37;100.00;93858.09;5053003;28;20267;-66
2022/07/27 04:41:57;;;;;;;11.33;7.10;;;;;;;17.46;98.39;93859.22;5050733;28;20207;-66
2022/07/27 04:44:40;;;;;;;13.80;7.83;;;;;;;17.27;98.87;93860.47;5046844;28;20289;-67
2022/07/27 04:47:25;;;;;;;12.67;7.00;;;;;;;17.02;99.08;93863.56;5040061;28;20241;-66
2022/07/27 04:50:09;;;;;;;15.70;7.80;;;;;;;17.03;100.00;93865.03;5050650;28;20237;-66
2022/07/27 04:52:53;;;;;;;11.33;8.00;;;;;;;17.28;99.81;93881.75;5045172;28;20260;-67
2022/07/27 04:55:40;;;;;;;10.53;7.03;;;;;;;17.41;98.93;93874.53;5054661;28;20712;-67
2022/07/27 04:58:24;;;;;;;7.70;6.93;;;;;;;17.02;100.00;93874.91;5056847;28;20255;-67
2022/07/27 05:01:11;;;;;;;8.90;7.03;;;;;;;17.07;100.00;93870.88;5051203;28;20244;-67
2022/07/27 05:03:56;;;;;;;10.83;7.03;;;;;;;17.15;100.00;93871.25;5059605;28;20642;-67
2022/07/27 05:06:40;;;;;;;10.10;6.53;;;;;;;17.37;100.00;93858.09;5048372;28;20714;-67
2022/07/27 05:09:24;;;;;;;11.70;6.30;;;;;;;17.57;99.73;93874.53;5049298;28;20282;-66
2022/07/27 05:12:08;;;;;;;8.60;6.87;;;;;;;17.49;99.77;93874.19;5051685;28;20202;-66
2022/07/27 05:14:52;;;;;;;14.00;7.10;;;;;;;17.55;100.00;93871.63;5049778;28;20599;-66
2022/07/27 05:17:36;;;;;;;8.20;6.70;;;;;;;17.43;99.42;93888.06;5046466;28;20498;-66
2022/07/27 05:20:20;;;;;;;9.77;6.63;;;;;;;17.65;97.98;93886.28;5046613;28;20210;-66
2022/07/27 05:23:05;;;;;;;6.10;5.50;;;;;;;18.02;95.71;93888.59;5047197;28;20202;-65
2022/07/27 05:25:48;;;;;;;12.93;6.07;;;;;;;18.34;94.78;93894.88;5047195;28;20233;-66
2022/07/27 05:28:32;;;;;;;6.17;4.90;;;;;;;18.60;91.76;93904.53;5048782;28;20197;-66
2022/07/27 05:31:17;;;;;;;5.13;4.57;;;;;;;18.72;89.20;93905.03;5044079;28;20256;-66
2022/07/27 05:34:01;;;;;;;8.47;4.17;;;;;;;18.84;85.25;93894.16;5049790;28;20201;-66
2022/07/27 05:36:45;;;;;;;5.67;4.33;;;;;;;18.88;85.76;93905.69;5052034;28;20237;-66
2022/07/27 05:39:29;;;;;;;8.73;4.07;;;;;;;18.69;85.51;93906.34;5047864;28;20191;-66
2022/07/27 05:42:13;;;;;;;9.03;3.50;;;;;;;19.09;82.07;93900.81;5051389;28;20205;-66
2022/07/27 05:44:57;;;;;;;9.43;3.97;;;;;;;19.39;80.47;93904.81;5047733;28;20196;-66
2022/07/27 05:47:41;;;;;;;4.07;2.87;;;;;;;18.82;79.82;93908.28;5056920;28;20204;-66
2022/07/27 05:50:25;;;;;;;6.20;2.80;;;;;;;19.04;79.74;93902.75;5046510;28;20251;-66
2022/07/27 05:53:09;;;;;;;9.57;2.43;;;;;;;19.23;78.90;93904.94;5049514;28;20267;-66
2022/07/27 05:55:54;;;;;;;6.90;2.43;;;;;;;19.46;78.01;93909.38;5051011;28;20561;-66
2022/07/27 05:58:37;;;;;;;3.93;2.50;;;;;;;19.67;76.78;93905.91;5048995;28;20205;-66
2022/07/27 06:01:22;;;;;;;4.63;2.70;;;;;;;20.57;72.67;93910.56;5049967;28;20232;-66
2022/07/27 06:04:05;;;;;;;5.37;2.03;;;;;;;20.64;72.97;93905.06;5045369;28;20701;-66
2022/07/27 06:09:53;;;;;;;3.17;2.47;;;;;;;20.04;73.27;93913.66;5047313;28;20229;-66
2022/07/27 06:12:41;;;;;;;6.80;2.63;;;;;;;19.55;75.67;93902.63;5043252;28;20278;-66
2022/07/27 06:15:25;;;;;;;4.35;2.65;;;;;;;19.62;75.81;93901.47;5051851;28;20209;-66
2022/07/27 06:18:16;;;;;;;4.57;2.28;;;;;;;19.74;74.20;93904.75;5051319;28;20644;-66
2022/07/27 06:21:01;;;;;;;6.72;2.20;;;;;;;20.30;72.40;93898.91;5051173;28;20190;-66
2022/07/27 06:23:47;;;;;;;4.15;2.33;;;;;;;20.13;71.21;93906.13;5046366;28;20285;-66
2022/07/27 06:26:31;;;;;;;3.78;1.92;;;;;;;20.17;70.20;93901.34;5056208;28;20267;-67
2022/07/27 06:29:15;;;;;;;7.60;2.13;;;;;;;20.53;69.23;93907.56;5048695;28;20205;-66
2022/07/27 06:31:59;;;;;;;3.30;2.15;;;;;;;20.39;68.54;93901.38;5049020;28;20698;-65
2022/07/27 06:34:42;;;;;;;4.45;2.40;;;;;;;20.34;69.46;93905.50;5051360;28;20197;-66
2022/07/27 06:37:28;;;;;;;5.30;2.13;;;;;;;21.14;65.06;93912.41;5043965;28;20667;-64
2022/07/27 06:40:13;;;;;;;3.85;2.03;;;;;;;20.61;67.00;93909.25;5042834;28;20202;-66
2022/07/27 06:42:58;;;;;;;6.45;2.20;;;;;;;20.54;70.08;93906.19;5048271;28;20224;-64
2022/07/27 06:45:43;;;;;;;2.53;2.20;;;;;;;20.54;72.80;93905.47;5048884;28;20302;-64
2022/07/27 06:48:27;;;;;;;2.45;2.25;;;;;;;19.91;75.59;93911.03;5044060;28;20302;-65
2022/07/27 06:51:11;;;;;;;4.05;2.47;;;;;;;20.44;74.62;93911.53;5051144;28;20210;-65
2022/07/27 06:53:54;;;;;;;6.00;2.53;;;;;;;20.24;74.85;93922.19;5046913;28;20217;-65
2022/07/27 06:56:38;;;;;;;3.60;2.90;;;;;;;19.92;76.20;93913.22;5049918;28;20288;-65
2022/07/27 06:59:22;;;;;;;4.72;3.00;;;;;;;20.20;75.34;93913.50;5043630;28;20285;-65
2022/07/27 07:02:06;;;;;;;5.70;3.10;;;;;;;20.54;74.34;93911.88;5040184;28;20206;-66
2022/07/27 07:04:50;;;;;;;5.07;2.85;;;;;;;20.71;72.40;93912.41;5046817;28;20676;-62
2022/07/27 07:07:34;;;;;;;5.72;2.38;;;;;;;20.25;73.27;93912.25;5047393;28;20305;-65
2022/07/27 07:10:18;;;;;;;3.65;2.58;;;;;;;20.24;71.98;93907.97;5050100;28;20580;-66
2022/07/27 07:13:05;;;;;;;6.43;2.55;;;;;;;20.09;72.60;93909.56;5049816;28;20195;-66
2022/07/27 07:15:49;;;;;;;4.38;2.50;;;;;;;21.43;68.69;93913.31;5045758;28;20248;-66
2022/07/27 07:18:33;;;;;;;2.40;1.92;;;;;;;20.99;67.41;93913.34;5050680;28;20240;-66
2022/07/27 07:21:17;;;;;;;2.58;2.38;;;;;;;20.86;69.17;93915.06;5049946;28;20645;-60
2022/07/27 07:24:01;;;;;;;5.80;2.70;;;;;;;21.01;69.25;93910.56;5046209;28;20201;-66
2022/07/27 07:26:45;;;;;;;7.57;2.63;;;;;;;21.68;66.50;93906.94;5048600;28;20282;-65
2022/07/27 07:29:29;;;;;;;3.65;2.00;;;;;;;21.35;67.74;93908.81;5041896;28;20721;-58
2022/07/27 07:32:13;;;;;;;3.05;1.90;;;;;;;21.37;67.32;93911.72;5039623;28;20198;-66
2022/07/27 07:34:57;;;;;;;6.90;2.15;;;;;;;21.29;66.13;93905.78;5046943;28;20252;-66
2022/07/27 07:37:41;;;;;;;5.43;1.85;;;;;;;21.51;65.37;93913.56;5050465;28;20259;-66
2022/07/27 07:40:25;;;;;;;3.78;1.60;;;;;;;21.47;64.96;93907.75;5035538;28;20229;-66
2022/07/27 07:43:10;;;;;;;2.72;1.90;;;;;;;21.50;62.94;93909.25;5049444;28;20202;-66
2022/07/27 07:45:54;;;;;;;6.80;2.17;;;;;;;20.82;63.60;93902.81;5047583;28;20591;-64
2022/07/27 07:48:38;;;;;;;9.30;2.42;;;;;;;21.76;62.68;93905.06;5039060;28;20241;-66
2022/07/27 07:51:22;;;;;;;4.30;1.88;;;;;;;22.79;59.10;93910.06;5051862;28;20252;-67
2022/07/27 07:54:06;;;;;;;4.93;2.08;;;;;;;22.53;58.29;93912.19;5053368;28;20740;-65
2022/07/27 07:56:50;;;;;;;5.93;1.88;;;;;;;22.00;59.28;93910.75;5043695;28;20193;-67
2022/07/27 07:59:34;;;;;;;9.48;1.95;;;;;;;21.91;60.51;93914.75;5051459;28;20204;-66
2022/07/27 08:02:19;;;;;;;5.30;2.40;;;;;;;22.77;57.65;93918.59;5052506;28;20744;-66
2022/07/27 08:05:04;;;;;;;2.95;2.00;;;;;;;22.25;59.08;93911.44;5053662;28;20330;-67
2022/07/27 08:07:48;;;;;;;3.85;1.95;;;;;;;21.96;60.05;93916.38;5054266;28;20209;-66
2022/07/27 08:10:32;;;;;;;4.43;2.20;;;;;;;21.91;59.41;93920.44;5049838;28;20301;-66
2022/07/27 08:13:16;;;;;;;3.58;2.05;;;;;;;22.69;57.54;93921.19;5034373;28;20575;-67
2022/07/27 08:16:00;;;;;;;6.47;2.00;;;;;;;23.71;54.82;93922.28;5044048;28;20243;-65
2022/07/27 08:18:44;;;;;;;3.90;2.22;;;;;;;23.92;53.25;93929.16;5051887;28;20580;-66
2022/07/27 08:21:28;;;;;;;4.22;2.00;;;;;;;23.87;53.64;93921.19;5046489;28;20260;-66
2022/07/27 08:24:12;;;;;;;6.68;2.45;;;;;;;22.94;54.45;93926.16;5043272;28;20247;-66
2022/07/27 08:26:56;;;;;;;12.25;2.38;;;;;;;21.95;56.03;93926.31;5050232;28;20300;-65
2022/07/27 08:29:39;;;;;;;6.80;1.90;;;;;;;22.78;54.22;93925.75;5051193;28;20197;-66
2022/07/27 08:32:23;;;;;;;6.45;1.70;;;;;;;22.96;54.78;93928.31;5042638;28;20206;-66
2022/07/27 08:35:08;;;;;;;9.90;2.00;;;;;;;23.28;53.59;93928.38;5052968;28;20699;-66
2022/07/27 08:37:52;;;;;;;3.20;1.73;;;;;;;23.26;53.63;93925.50;5049382;28;20199;-64
2022/07/27 08:40:37;;;;;;;7.15;2.20;;;;;;;24.38;50.88;93938.00;5046237;28;20628;-65
2022/07/27 08:43:24;;;;;;;5.72;1.92;;;;;;;23.75;51.40;93933.81;5053238;28;20209;-66
2022/07/27 08:46:10;;;;;;;4.07;1.85;;;;;;;23.69;52.09;93925.09;5049563;28;20267;-66
2022/07/27 08:48:55;;;;;;;2.70;1.60;;;;;;;24.43;50.34;93933.81;5049624;28;20723;-66
2022/07/27 08:51:40;;;;;;;4.32;1.63;;;;;;;24.62;49.60;93932.03;5043395;28;20230;-67
2022/07/27 08:54:24;;;;;;;4.30;2.00;;;;;;;24.65;50.46;93932.78;5048023;28;20673;-67
2022/07/27 08:57:09;;;;;;;2.15;1.30;;;;;;;24.55;50.98;93934.06;5052521;28;20197;-66
2022/07/27 08:59:55;;;;;;;5.22;1.45;;;;;;;24.74;51.31;93937.25;5047954;28;20292;-66
2022/07/27 09:02:41;;;;;;;3.97;2.05;;;;;;;23.77;53.26;93933.13;5049499;28;20220;-66
2022/07/27 09:05:25;;;;;;;6.97;1.83;;;;;;;23.89;49.56;93924.06;5045632;28;20205;-66
2022/07/27 09:08:16;;;;;;;7.00;1.63;;;;;;;24.42;49.24;93931.63;5044951;28;20252;-67
2022/07/27 09:11:02;;;;;;;4.78;1.90;;;;;;;24.58;51.97;93935.53;5051051;28;20204;-66
2022/07/27 09:13:46;;;;;;;3.38;1.60;;;;;;;25.25;49.71;93942.47;5042677;28;20283;-69
2022/07/27 09:16:30;;;;;;;3.60;1.83;;;;;;;24.45;50.31;93935.97;5044822;28;20206;-66
2022/07/27 09:19:15;;;;;;;5.18;1.73;;;;;;;24.05;51.12;93942.34;5052399;28;20193;-68
2022/07/27 09:21:59;;;;;;;5.43;1.80;;;;;;;25.03;47.73;93942.13;5049797;28;20204;-69
2022/07/27 09:25:00;;;;;;;6.57;1.95;;;;;;;23.11;53.14;93949.41;5046655;28;20289;-67
2022/07/27 09:27:47;;;;;;;6.35;2.22;;;;;;;23.18;53.10;93936.75;5047425;28;20202;-67
2022/07/27 09:30:31;;;;;;;3.58;1.83;;;;;;;24.55;49.13;93939.06;5044834;28;20572;-60
2022/07/27 09:33:15;;;;;;;5.82;1.80;;;;;;;24.63;50.20;93939.19;5049761;28;21247;-59
2022/07/27 09:35:59;;;;;;;5.07;1.90;;;;;;;25.49;45.86;93941.44;5051777;28;20193;-64
2022/07/27 09:39:06;;;;;;;3.42;1.65;;;;;;;25.92;46.09;93940.66;5046032;28;20205;-67
2022/07/27 09:41:56;;;;;;;5.65;1.70;;;;;;;25.41;46.24;93949.91;5039625;28;20698;-66
2022/07/27 09:44:41;;;;;;;4.80;1.85;;;;;;;26.32;42.88;93951.25;5043638;28;20736;-66
2022/07/27 09:47:28;;;;;;;5.50;1.90;;;;;;;26.73;42.54;93940.94;5051835;28;20212;-64
2022/07/27 09:50:18;;;;;;;11.73;2.00;;;;;;;26.32;43.64;93939.75;5049672;28;20742;-66
2022/07/27 09:53:18;;;;;;;7.75;1.90;;;;;;;26.23;45.29;93938.19;5043401;28;20690;-66
2022/07/27 09:56:08;;;;;;;11.63;1.70;;;;;;;25.66;43.19;93937.41;5046596;28;20194;-65
2022/07/27 09:58:57;;;;;;;3.58;1.73;;;;;;;25.42;44.24;93937.75;5049937;28;20232;-66
2022/07/27 10:01:41;;;;;;;8.23;2.20;;;;;;;25.09;44.84;93936.47;5040682;28;20201;-67
2022/07/27 10:04:25;;;;;;;5.53;1.90;;;;;;;24.63;44.98;93939.19;5051314;28;20643;-67
2022/07/27 10:07:11;;;;;;;5.05;1.40;;;;;;;24.81;45.02;93941.69;5051470;28;20229;-67
2022/07/27 10:09:56;;;;;;;9.07;1.85;;;;;;;25.74;40.93;93946.13;5047301;28;20244;-67
2022/07/27 10:12:44;;;;;;;3.00;1.60;;;;;;;26.19;41.27;93942.47;5047899;28;20259;-66
2022/07/27 10:15:28;;;;;;;3.72;1.95;;;;;;;25.92;43.27;93942.81;5042456;28;20289;-63
2022/07/27 10:18:26;;;;;;;5.68;1.80;;;;;;;26.08;40.51;93946.63;5051416;28;20247;-67
2022/07/27 10:21:10;;;;;;;3.22;1.65;;;;;;;26.03;42.03;93948.00;5044611;28;20202;-68
2022/07/27 10:24:00;;;;;;;2.33;1.63;;;;;;;25.84;41.83;93945.56;5047872;28;20575;-67
2022/07/27 10:26:44;;;;;;;5.90;1.83;;;;;;;26.88;40.01;93949.06;5046147;28;20221;-67
2022/07/27 10:29:28;;;;;;;5.97;1.90;;;;;;;26.48;40.79;93948.56;5049222;28;20698;-67
2022/07/27 10:32:22;;;;;;;5.68;1.70;;;;;;;26.69;39.94;93953.13;5049380;28;20282;-66
2022/07/27 10:35:30;;;;;;;6.60;1.80;;;;;;;25.47;41.13;93947.84;5048996;28;20729;-65
2022/07/27 10:38:17;;;;;;;3.22;1.95;;;;;;;26.05;40.45;93950.88;5049737;28;20202;-67
2022/07/27 10:41:22;;;;;;;5.95;2.47;;;;;;;25.53;43.21;93947.22;5046320;28;20233;-67
2022/07/27 10:44:21;;;;;;;8.40;2.47;;;;;;;26.09;41.92;93948.09;5047192;28;20570;-66
2022/07/27 10:47:05;;;;;;;1.52;1.40;;;;;;;26.74;40.48;93954.63;5039689;28;20723;-64
2022/07/27 10:49:49;;;;;;;7.43;2.38;;;;;;;26.35;39.74;93949.88;5049822;28;20208;-67
2022/07/27 10:52:41;;;;;;;8.45;1.95;;;;;;;26.21;42.46;93953.25;5038253;28;20732;-67
2022/07/27 10:55:28;;;;;;;3.00;1.80;;;;;;;26.31;42.05;93946.94;5050338;28;20216;-66
2022/07/27 10:58:12;;;;;;;5.85;1.67;;;;;;;25.16;42.84;93945.91;5041183;28;20240;-67
2022/07/27 11:01:06;;;;;;;7.03;1.83;;;;;;;26.09;40.89;93942.34;5045880;28;20201;-67
2022/07/27 11:03:52;;;;;;;2.17;1.25;;;;;;;25.73;41.64;93954.03;5051045;28;20217;-59
2022/07/27 11:06:36;;;;;;;3.55;1.60;;;;;;;25.32;43.61;93946.91;5050137;28;20301;-67
2022/07/27 11:09:21;;;;;;;8.27;1.90;;;;;;;25.49;43.26;93941.44;5048059;28;20221;-67
2022/07/27 11:12:08;;;;;;;4.57;1.52;;;;;;;26.09;41.51;93950.94;5048861;28;20256;-67
2022/07/27 11:14:54;;;;;;;2.08;1.65;;;;;;;26.53;41.47;93947.94;5042168;28;20298;-67
2022/07/27 11:17:48;;;;;;;2.58;1.55;;;;;;;27.81;37.02;93945.56;5040128;28;20561;-67
2022/07/27 11:20:32;;;;;;;2.67;1.35;;;;;;;27.77;36.45;93941.22;5047640;28;20206;-67
2022/07/27 11:23:18;;;;;;;4.10;1.35;;;;;;;27.22;37.81;93945.09;5045472;28;20248;-66
2022/07/27 11:26:02;;;;;;;4.38;1.50;;;;;;;26.41;39.32;93944.94;5050200;28;20221;-66
2022/07/27 11:28:47;;;;;;;2.47;1.60;;;;;;;26.23;38.73;93943.94;5049630;28;20202;-65
2022/07/27 11:31:31;;;;;;;5.70;1.60;;;;;;;26.59;38.63;93950.16;5047583;28;20209;-66
2022/07/27 11:34:16;;;;;;;4.05;1.67;;;;;;;25.84;40.58;93934.09;5046204;28;20209;-63
2022/07/27 11:37:04;;;;;;;2.67;1.55;;;;;;;25.71;41.18;93945.38;5054005;28;20273;-67
2022/07/27 11:39:58;;;;;;;4.15;1.50;;;;;;;26.10;39.88;93943.78;5044264;28;20236;-65
2022/07/27 11:42:42;;;;;;;5.80;1.60;;;;;;;26.34;37.14;93948.41;5044656;28;20210;-67
2022/07/27 11:45:29;;;;;;;4.18;1.83;;;;;;;26.15;38.08;93933.78;5048128;28;20595;-66
2022/07/27 11:48:16;;;;;;;4.10;1.50;;;;;;;26.75;39.08;93940.97;5051094;28;20225;-67
2022/07/27 11:51:00;;;;;;;3.50;1.40;;;;;;;27.45;35.94;93932.31;5051669;28;20233;-68
2022/07/27 11:53:44;;;;;;;2.03;1.23;;;;;;;27.53;37.15;93929.53;5049468;28;20236;-67
2022/07/27 11:56:31;;;;;;;2.25;1.48;;;;;;;28.36;33.54;93932.22;5053356;28;20687;-66
2022/07/27 11:59:18;;;;;;;5.63;1.50;;;;;;;28.21;35.92;93927.84;5052146;28;20252;-67
2022/07/27 12:02:03;;;;;;;5.55;1.45;;;;;;;27.00;38.14;93922.56;5045469;28;20249;-67
2022/07/27 12:04:52;;;;;;;3.40;1.65;;;;;;;27.09;38.65;93923.38;5049021;28;20264;-67
2022/07/27 12:07:36;;;;;;;4.50;1.10;;;;;;;28.05;37.53;93928.44;5051664;28;20218;-67
2022/07/27 12:10:20;;;;;;;6.80;1.70;;;;;;;27.40;37.83;93922.22;5045585;28;20232;-66
2022/07/27 12:13:04;;;;;;;6.10;1.35;;;;;;;26.89;37.83;93926.78;5049761;28;20263;-66
2022/07/27 12:15:58;;;;;;;3.55;1.73;;;;;;;26.73;39.21;93918.69;5049149;28;20201;-67
2022/07/27 12:18:42;;;;;;;5.07;1.70;;;;;;;27.21;39.00;93923.50;5050008;28;20213;-67
2022/07/27 12:21:26;;;;;;;2.03;1.60;;;;;;;27.14;36.72;93924.88;5052251;28;20197;-63
2022/07/27 12:24:11;;;;;;;2.08;1.33;;;;;;;27.00;37.42;93921.84;5047030;28;20206;-60
2022/07/27 12:27:12;;;;;;;5.60;1.40;;;;;;;27.11;37.70;93920.50;5053493;28;20237;-67
2022/07/27 12:30:06;;;;;;;3.42;1.40;;;;;;;25.92;39.98;93911.97;5044988;28;20184;-61
2022/07/27 12:32:51;;;;;;;4.50;1.55;;;;;;;26.50;39.05;93911.25;5047813;28;20206;-67
2022/07/27 12:35:46;;;;;;;3.05;1.58;;;;;;;27.29;37.76;93917.78;5046544;28;20194;-60
2022/07/27 12:38:42;;;;;;;3.22;1.80;;;;;;;26.74;39.96;93917.25;5052585;28;20205;-65
2022/07/27 12:41:29;;;;;;;4.75;1.50;;;;;;;26.70;39.04;93920.09;5045661;28;20237;-66
2022/07/27 12:44:15;;;;;;;6.43;1.60;;;;;;;27.59;36.65;93920.94;5039150;28;20224;-59
2022/07/27 12:47:39;;;;;;;2.70;1.65;;;;;;;27.64;35.86;93916.66;5045292;28;20844;-59
2022/07/27 12:50:09;;;;;;;6.15;1.48;;;;;;;26.18;38.77;93920.91;5050745;28;20201;-65
2022/07/27 12:52:53;;;;;;;2.80;1.38;;;;;;;26.11;40.89;93910.75;5043375;28;20265;-67
2022/07/27 12:55:39;;;;;;;1.60;1.40;;;;;;;26.96;37.92;93911.78;5045856;28;20275;-67
2022/07/27 12:58:24;;;;;;;2.30;1.48;;;;;;;26.46;38.18;93905.47;5044304;28;20249;-67
2022/07/27 13:01:08;;;;;;;5.05;1.60;;;;;;;26.65;39.48;93912.88;5046601;28;20225;-67